createdAt,value
2018-11-22T00:01:10.138Z,93.50
2018-11-22T00:03:40.447Z,93.60
2018-11-22T00:06:10.387Z,93.70
2018-11-22T00:08:43.126Z,93.80
2018-11-22T00:11:13.116Z,94.00
2018-11-22T00:13:43.124Z,93.90
2018-11-22T00:16:13.091Z,93.90
2018-11-22T00:18:43.050Z,94.00
2018-11-22T00:21:13.034Z,94.00
2018-11-22T00:23:43.054Z,93.90
2018-11-22T00:26:13.057Z,94.00
2018-11-22T00:28:44.038Z,93.90
2018-11-22T00:31:13.999Z,93.90
2018-11-22T00:33:43.971Z,93.80
2018-11-22T00:36:13.928Z,93.90
2018-11-22T00:38:43.920Z,93.80
2018-11-22T00:41:14.015Z,93.60
2018-11-22T00:43:47.593Z,93.60
2018-11-22T00:46:17.567Z,93.60
2018-11-22T00:48:47.501Z,93.60
2018-11-22T00:51:17.795Z,93.60
2018-11-22T00:53:47.771Z,93.70
2018-11-22T00:56:18.439Z,93.60
2018-11-22T00:58:48.394Z,93.60
2018-11-22T01:01:18.335Z,93.50
2018-11-22T01:03:48.373Z,93.60
2018-11-22T01:06:27.567Z,93.40
2018-11-22T01:08:57.554Z,93.30
2018-11-22T01:11:27.482Z,93.30
2018-11-22T01:14:04.265Z,93.40
2018-11-22T01:16:34.208Z,93.30
2018-11-22T01:19:10.173Z,93.30
2018-11-22T01:21:40.359Z,93.30
2018-11-22T01:24:10.313Z,93.20
2018-11-22T01:26:40.344Z,93.20
2018-11-22T01:29:10.338Z,93.20
2018-11-22T01:31:49.990Z,93.20
2018-11-22T01:34:19.989Z,93.10
2018-11-22T01:36:49.955Z,93.10
2018-11-22T01:39:19.902Z,93.30
2018-11-22T01:41:49.874Z,93.30
2018-11-22T01:44:19.814Z,93.40
2018-11-22T01:46:49.746Z,93.50
2018-11-22T01:49:19.835Z,93.60
2018-11-22T01:51:49.777Z,93.70
2018-11-22T01:54:19.811Z,93.80
2018-11-22T01:56:49.877Z,93.80
2018-11-22T01:59:19.850Z,93.90
2018-11-22T02:01:52.896Z,93.90
2018-11-22T02:04:25.253Z,93.80
2018-11-22T02:07:03.964Z,93.80
2018-11-22T02:09:38.820Z,93.70
2018-11-22T02:12:08.799Z,93.80
2018-11-22T02:14:38.761Z,93.70
2018-11-22T02:17:08.721Z,93.80
2018-11-22T02:19:38.666Z,93.80
2018-11-22T02:22:08.613Z,93.80
2018-11-22T02:24:38.583Z,94.00
2018-11-22T02:27:08.763Z,93.90
2018-11-22T02:29:38.781Z,94.00
2018-11-22T02:32:08.763Z,93.80
2018-11-22T02:34:38.735Z,93.80
2018-11-22T02:37:08.699Z,93.70
2018-11-22T02:39:38.647Z,93.70
2018-11-22T02:42:08.603Z,93.80
2018-11-22T02:44:38.904Z,93.50
2018-11-22T02:47:08.874Z,93.60
2018-11-22T02:49:38.817Z,93.70
2018-11-22T02:52:08.781Z,93.60
2018-11-22T02:54:39.183Z,93.50
2018-11-22T02:57:11.450Z,93.70
2018-11-22T02:59:41.445Z,93.40
2018-11-22T03:02:11.434Z,93.40
2018-11-22T03:04:41.429Z,93.40
2018-11-22T03:07:11.521Z,93.30
2018-11-22T03:09:43.677Z,93.70
2018-11-22T03:12:13.807Z,93.60
2018-11-22T03:14:43.831Z,93.90
2018-11-22T03:17:13.839Z,93.60
2018-11-22T03:19:43.888Z,93.60
2018-11-22T03:22:13.869Z,93.60
2018-11-22T03:24:43.922Z,94.00
2018-11-22T03:27:13.861Z,94.00
2018-11-22T03:29:43.802Z,94.10
2018-11-22T03:32:13.754Z,94.20
2018-11-22T03:34:43.704Z,94.20
2018-11-22T03:37:13.663Z,93.70
2018-11-22T03:39:43.666Z,93.80
2018-11-22T03:42:14.661Z,93.60
2018-11-22T03:44:44.640Z,93.90
2018-11-22T03:47:14.683Z,93.60
2018-11-22T03:49:44.641Z,93.40
2018-11-22T03:52:14.583Z,93.40
2018-11-22T03:54:44.548Z,93.40
2018-11-22T03:57:14.499Z,93.30
2018-11-22T03:59:46.472Z,93.30
2018-11-22T04:02:16.448Z,93.30
2018-11-22T04:04:46.452Z,93.30
2018-11-22T04:07:16.392Z,93.20
2018-11-22T04:09:46.357Z,93.20
2018-11-22T04:12:16.327Z,93.20
2018-11-22T04:14:46.292Z,93.20
2018-11-22T04:17:16.288Z,93.20
2018-11-22T04:19:46.283Z,93.20
2018-11-22T04:22:19.257Z,93.20
2018-11-22T04:24:49.237Z,93.30
2018-11-22T04:27:19.271Z,93.20
2018-11-22T04:29:50.469Z,93.20
2018-11-22T04:32:22.984Z,93.60
2018-11-22T04:34:52.963Z,93.30
2018-11-22T04:37:22.925Z,93.20
2018-11-22T04:39:55.337Z,93.20
2018-11-22T04:42:25.283Z,93.20
2018-11-22T04:44:55.219Z,93.10
2018-11-22T04:47:25.130Z,93.20
2018-11-22T04:49:55.082Z,93.10
2018-11-22T04:52:24.995Z,93.20
2018-11-22T04:54:57.734Z,93.10
2018-11-22T04:57:28.100Z,93.20
2018-11-22T04:59:58.054Z,93.10
2018-11-22T05:02:28.066Z,93.20
2018-11-22T05:04:57.964Z,93.10
2018-11-22T05:07:27.907Z,93.20
2018-11-22T05:09:57.824Z,93.10
2018-11-22T05:12:27.769Z,93.00
2018-11-22T05:14:57.696Z,93.10
2018-11-22T05:17:27.661Z,93.00
2018-11-22T05:19:57.762Z,93.00
2018-11-22T05:22:27.714Z,93.00
2018-11-22T05:25:02.275Z,93.00
2018-11-22T05:27:32.217Z,92.90
2018-11-22T05:30:02.205Z,93.00
2018-11-22T05:32:35.352Z,92.90
2018-11-22T05:35:04.380Z,93.00
2018-11-22T05:37:36.548Z,92.90
2018-11-22T05:40:12.338Z,93.10
2018-11-22T05:42:43.328Z,92.90
2018-11-22T05:45:15.322Z,92.80
2018-11-22T05:47:46.077Z,92.90
2018-11-22T05:50:24.210Z,92.90
2018-11-22T05:52:55.377Z,92.80
2018-11-22T05:55:25.285Z,92.80
2018-11-22T05:57:55.341Z,92.80
2018-11-22T06:00:27.077Z,92.70
2018-11-22T06:02:57.814Z,92.70
2018-11-22T06:05:28.845Z,92.80
2018-11-22T06:07:58.881Z,92.70
2018-11-22T06:10:30.732Z,92.70
2018-11-22T06:13:09.842Z,92.60
2018-11-22T06:15:41.853Z,92.80
2018-11-22T06:18:11.883Z,92.70
2018-11-22T06:20:41.820Z,92.80
2018-11-22T06:23:14.117Z,93.30
2018-11-22T06:25:47.886Z,92.90
2018-11-22T06:28:17.888Z,92.80
2018-11-22T06:30:47.888Z,93.10
2018-11-22T06:33:17.833Z,92.80
2018-11-22T06:35:47.934Z,93.70
2018-11-22T06:38:26.241Z,93.10
2018-11-22T06:40:58.717Z,92.90
2018-11-22T06:43:28.675Z,92.80
2018-11-22T06:46:01.145Z,93.00
2018-11-22T06:48:41.543Z,93.00
2018-11-22T06:51:24.363Z,93.00
2018-11-22T06:53:57.154Z,93.00
2018-11-22T06:56:29.162Z,93.00
2018-11-22T06:59:03.629Z,93.10
2018-11-22T07:01:39.560Z,93.10
2018-11-22T07:04:09.521Z,93.00
2018-11-22T07:06:39.551Z,92.90
2018-11-22T07:09:15.065Z,92.80
2018-11-22T07:11:44.974Z,92.90
2018-11-22T07:14:14.909Z,92.80
2018-11-22T07:16:44.871Z,93.00
2018-11-22T07:19:14.795Z,93.00
2018-11-22T07:21:47.014Z,92.90
2018-11-22T07:24:17.077Z,93.00
2018-11-22T07:27:00.967Z,92.80
2018-11-22T07:29:45.244Z,93.10
2018-11-22T07:32:21.638Z,93.00
2018-11-22T07:34:51.620Z,92.80
2018-11-22T07:37:21.577Z,92.80
2018-11-22T07:39:54.129Z,92.60
2018-11-22T07:42:24.095Z,92.80
2018-11-22T07:44:54.164Z,92.60
2018-11-22T07:47:27.539Z,92.70
2018-11-22T07:50:01.650Z,92.70
2018-11-22T07:52:35.298Z,92.80
2018-11-22T07:55:05.952Z,92.70
2018-11-22T07:57:35.901Z,92.40
2018-11-22T08:00:08.280Z,92.60
2018-11-22T08:02:38.738Z,93.20
2018-11-22T08:05:12.660Z,93.40
2018-11-22T08:07:42.998Z,92.80
2018-11-22T08:10:15.020Z,92.60
2018-11-22T08:12:45.732Z,92.60
2018-11-22T08:15:19.901Z,92.60
2018-11-22T08:17:50.009Z,93.10
2018-11-22T08:20:21.228Z,93.70
2018-11-22T08:22:54.504Z,92.70
2018-11-22T08:25:29.482Z,93.30
2018-11-22T08:27:59.576Z,93.00
2018-11-22T08:30:29.524Z,93.00
2018-11-22T08:32:59.455Z,92.90
2018-11-22T08:35:29.469Z,92.60
2018-11-22T08:37:59.419Z,92.40
2018-11-22T08:40:30.634Z,92.80
2018-11-22T08:43:19.329Z,92.50
2018-11-22T08:45:52.113Z,92.50
2018-11-22T08:48:22.176Z,92.40
2018-11-22T08:50:56.913Z,92.70
2018-11-22T08:53:36.933Z,92.60
2018-11-22T08:56:00.226Z,92.30
2018-11-22T08:58:41.074Z,92.40
2018-11-22T09:01:21.125Z,92.50
2018-11-22T09:03:51.524Z,92.70
2018-11-22T09:06:21.491Z,92.60
2018-11-22T09:08:51.557Z,92.90
2018-11-22T09:11:21.538Z,93.00
2018-11-22T09:13:51.563Z,92.60
2018-11-22T09:16:21.700Z,92.70
2018-11-22T09:18:51.805Z,92.90
2018-11-22T09:21:21.779Z,92.60
2018-11-22T09:23:51.843Z,92.60
2018-11-22T09:26:25.533Z,92.60
2018-11-22T09:28:55.512Z,92.70
2018-11-22T09:31:26.371Z,92.90
2018-11-22T09:33:56.444Z,93.00
2018-11-22T09:36:26.593Z,92.70
2018-11-22T09:38:56.535Z,93.00
2018-11-22T09:41:29.100Z,93.20
2018-11-22T09:44:01.625Z,93.30
2018-11-22T09:46:31.655Z,93.40
2018-11-22T09:49:01.637Z,93.40
2018-11-22T09:51:32.717Z,93.70
2018-11-22T09:54:02.854Z,93.60
2018-11-22T09:56:33.024Z,93.60
2018-11-22T09:59:03.182Z,93.70
2018-11-22T10:01:36.089Z,93.90
2018-11-22T10:04:06.440Z,94.10
2018-11-22T10:06:39.003Z,94.00
2018-11-22T13:00:38.436Z,93.30
2018-11-22T19:41:56.320Z,93.60
